createdAt,value
2022-10-09T00:00:47.106Z,77.40
2022-10-09T00:03:14.608Z,77.37
2022-10-09T00:05:41.669Z,76.87
2022-10-09T00:08:08.682Z,77.15
2022-10-09T00:10:35.444Z,76.69
2022-10-09T00:13:02.332Z,76.70
2022-10-09T00:15:30.249Z,76.90
2022-10-09T00:17:57.024Z,76.80
2022-10-09T00:20:23.639Z,77.53
2022-10-09T00:22:50.542Z,77.21
2022-10-09T00:25:17.355Z,77.20
2022-10-09T00:27:44.269Z,76.42
2022-10-09T00:30:11.462Z,76.76
2022-10-09T00:32:38.219Z,76.89
2022-10-09T00:35:05.178Z,76.89
2022-10-09T00:37:31.850Z,76.39
2022-10-09T00:39:58.740Z,76.46
2022-10-09T00:42:26.453Z,77.02
2022-10-09T00:45:00.325Z,75.81
2022-10-09T00:47:38.609Z,76.24
2022-10-09T00:50:14.232Z,75.64
2022-10-09T00:52:41.525Z,75.92
2022-10-09T00:55:09.259Z,75.38
2022-10-09T00:57:38.815Z,75.72
2022-10-09T01:00:10.714Z,75.59
2022-10-09T01:02:38.064Z,75.39
2022-10-09T01:05:06.431Z,76.24
2022-10-09T01:07:47.948Z,76.98
2022-10-09T01:10:55.526Z,76.87
2022-10-09T01:14:09.653Z,77.29
2022-10-09T01:16:45.080Z,77.25
2022-10-09T01:19:23.862Z,76.59
2022-10-09T01:22:12.484Z,76.52
2022-10-09T01:24:51.159Z,76.17
2022-10-09T01:27:22.486Z,75.63
2022-10-09T01:29:54.401Z,75.69
2022-10-09T01:32:26.369Z,76.30
2022-10-09T01:34:53.838Z,76.19
2022-10-09T01:37:21.896Z,76.37
2022-10-09T01:39:49.632Z,76.58
2022-10-09T01:42:20.365Z,77.21
2022-10-09T01:44:47.106Z,77.48
2022-10-09T01:47:17.018Z,78.03
2022-10-09T01:49:55.747Z,77.87
2022-10-09T01:52:41.148Z,77.43
2022-10-09T01:55:17.353Z,77.37
2022-10-09T01:58:09.374Z,76.76
2022-10-09T02:01:15.726Z,75.87
2022-10-09T02:03:46.925Z,76.26
2022-10-09T02:06:16.796Z,75.29
2022-10-09T02:08:47.016Z,74.83
2022-10-09T02:11:17.317Z,73.43
2022-10-09T02:13:46.590Z,73.69
2022-10-09T02:16:37.730Z,72.49
2022-10-09T02:19:25.431Z,72.57
2022-10-09T02:21:56.845Z,72.12
2022-10-09T02:24:24.607Z,72.16
2022-10-09T02:26:54.293Z,71.16
2022-10-09T02:29:21.991Z,71.36
2022-10-09T02:31:48.626Z,71.74
2022-10-09T02:34:19.660Z,71.27
2022-10-09T02:36:47.486Z,71.73
2022-10-09T02:39:14.214Z,71.51
2022-10-09T02:41:40.925Z,72.33
2022-10-09T02:44:08.035Z,71.62
2022-10-09T02:46:35.330Z,70.71
2022-10-09T02:49:02.081Z,69.90
2022-10-09T02:51:28.676Z,69.78
2022-10-09T02:53:55.912Z,69.29
2022-10-09T02:56:23.815Z,69.33
2022-10-09T02:58:50.691Z,69.50
2022-10-09T03:01:17.866Z,69.95
2022-10-09T03:03:45.263Z,70.30
2022-10-09T03:06:17.902Z,69.76
2022-10-09T03:08:47.683Z,70.11
2022-10-09T03:11:16.025Z,70.17
2022-10-09T03:13:42.713Z,69.70
2022-10-09T03:16:20.827Z,69.30
2022-10-09T03:18:48.771Z,68.56
2022-10-09T03:21:23.878Z,68.36
2022-10-09T03:23:52.094Z,68.26
2022-10-09T03:26:21.497Z,68.37
2022-10-09T03:28:50.692Z,68.12
2022-10-09T03:31:46.475Z,67.99
2022-10-09T03:34:05.415Z,67.22
2022-10-09T03:36:31.999Z,67.66
2022-10-09T03:38:58.731Z,67.61
2022-10-09T03:41:25.563Z,67.00
2022-10-09T03:43:52.252Z,66.63
2022-10-09T03:46:18.891Z,67.18
2022-10-09T03:48:45.795Z,67.38
2022-10-09T03:51:12.500Z,67.22
2022-10-09T03:53:39.352Z,67.89
2022-10-09T03:56:06.234Z,67.81
2022-10-09T03:58:32.926Z,68.26
2022-10-09T04:00:59.619Z,68.45
2022-10-09T04:03:27.620Z,68.07
2022-10-09T04:05:54.337Z,68.47
2022-10-09T04:08:21.040Z,68.94
2022-10-09T04:10:47.841Z,69.17
2022-10-09T04:13:14.451Z,69.78
2022-10-09T04:15:49.402Z,70.01
2022-10-09T04:18:16.017Z,70.63
2022-10-09T04:20:54.086Z,70.82
2022-10-09T04:23:22.785Z,70.78
2022-10-09T04:25:53.265Z,71.20
2022-10-09T04:28:19.924Z,71.48
2022-10-09T04:30:46.544Z,71.04
2022-10-09T04:33:13.310Z,70.88
2022-10-09T04:35:44.416Z,71.17
2022-10-09T04:38:11.453Z,71.04
2022-10-09T04:40:38.126Z,71.66
2022-10-09T04:43:04.892Z,72.29
2022-10-09T04:45:31.848Z,72.38
2022-10-09T04:47:58.653Z,72.43
2022-10-09T04:50:25.614Z,73.30
2022-10-09T04:52:52.289Z,73.19
2022-10-09T04:55:18.991Z,73.92
2022-10-09T04:57:45.629Z,74.98
2022-10-09T05:00:13.229Z,74.79
2022-10-09T05:02:39.800Z,74.41
2022-10-09T05:05:06.718Z,73.56
2022-10-09T05:07:33.468Z,72.99
2022-10-09T05:10:00.252Z,72.92
2022-10-09T05:12:27.265Z,72.54
2022-10-09T05:14:53.936Z,72.59
2022-10-09T05:17:23.152Z,71.85
2022-10-09T05:19:50.180Z,71.54
2022-10-09T05:22:16.892Z,71.40
2022-10-09T05:24:43.501Z,72.06
2022-10-09T05:27:10.191Z,72.18
2022-10-09T05:29:36.823Z,71.85
2022-10-09T05:32:03.545Z,70.73
2022-10-09T05:34:30.341Z,71.69
2022-10-09T05:36:57.060Z,70.53
2022-10-09T05:39:23.721Z,71.17
2022-10-09T05:41:50.371Z,70.96
2022-10-09T05:44:16.995Z,71.67
2022-10-09T05:46:43.721Z,72.75
2022-10-09T05:49:12.215Z,72.37
2022-10-09T05:51:40.234Z,72.43
2022-10-09T05:54:07.100Z,72.85
2022-10-09T05:56:38.883Z,70.89
2022-10-09T05:59:08.258Z,71.64
2022-10-09T06:01:37.636Z,72.19
2022-10-09T06:04:05.836Z,72.50
2022-10-09T06:06:35.932Z,72.97
2022-10-09T06:09:05.085Z,73.71
2022-10-09T06:11:34.576Z,74.02
2022-10-09T06:14:03.415Z,72.81
2022-10-09T06:16:33.674Z,72.56
2022-10-09T06:19:01.235Z,72.22
2022-10-09T06:21:28.719Z,70.53
2022-10-09T06:23:59.569Z,68.32
2022-10-09T06:26:29.369Z,67.20
2022-10-09T06:28:56.866Z,67.48
2022-10-09T06:31:28.791Z,65.51
2022-10-09T06:33:56.171Z,65.68
2022-10-09T06:36:25.578Z,66.80
2022-10-09T06:38:54.268Z,66.01
2022-10-09T06:41:25.822Z,63.28
2022-10-09T06:43:55.015Z,63.21
2022-10-09T06:46:24.212Z,63.74
2022-10-09T06:48:51.020Z,63.26
2022-10-09T06:51:20.269Z,60.62
2022-10-09T06:53:50.384Z,59.95
2022-10-09T06:56:18.103Z,60.48
2022-10-09T06:58:45.604Z,62.69
2022-10-09T07:01:15.816Z,59.85
2022-10-09T07:03:44.533Z,61.81
2022-10-09T07:06:23.119Z,61.78
2022-10-09T07:08:52.771Z,61.28
2022-10-09T07:11:46.737Z,61.52
2022-10-09T07:14:14.301Z,63.30
2022-10-09T07:16:43.806Z,63.38
2022-10-09T07:19:11.785Z,59.46
2022-10-09T07:21:41.897Z,62.32
2022-10-09T07:24:08.706Z,60.06
2022-10-09T07:26:39.181Z,59.64
2022-10-09T07:29:07.437Z,59.47
2022-10-09T07:31:34.163Z,59.90
2022-10-09T07:34:00.885Z,60.78
2022-10-09T07:36:27.686Z,59.79
2022-10-09T07:38:56.739Z,58.88
2022-10-09T07:41:25.899Z,57.89
2022-10-09T07:43:52.936Z,57.61
2022-10-09T07:46:21.548Z,57.55
2022-10-09T07:48:48.486Z,55.60
2022-10-09T07:51:23.752Z,55.71
2022-10-09T07:53:51.373Z,54.48
2022-10-09T07:56:29.208Z,54.32
2022-10-09T07:59:01.762Z,52.62
2022-10-09T08:01:29.741Z,53.86
2022-10-09T08:03:57.377Z,53.98
2022-10-09T08:06:24.382Z,54.25
2022-10-09T08:08:55.944Z,53.42
2022-10-09T08:11:24.594Z,51.24
2022-10-09T08:13:52.600Z,50.00
2022-10-09T08:16:21.250Z,50.42
2022-10-09T08:18:48.042Z,51.99
2022-10-09T08:21:18.446Z,51.23
2022-10-09T08:23:45.688Z,50.11
2022-10-09T08:26:17.954Z,48.80
2022-10-09T08:28:45.237Z,47.98
2022-10-09T08:31:14.392Z,49.04
2022-10-09T08:33:41.421Z,48.48
2022-10-09T08:36:10.421Z,49.60
2022-10-09T08:38:47.250Z,48.40
2022-10-09T08:41:21.327Z,46.73
2022-10-09T08:43:54.383Z,47.48
2022-10-09T08:46:30.704Z,46.28
2022-10-09T08:49:00.136Z,45.78
2022-10-09T08:51:31.415Z,44.73
2022-10-09T08:54:25.164Z,44.23
2022-10-09T08:56:53.736Z,42.50
2022-10-09T08:59:20.478Z,43.25
2022-10-09T09:02:07.371Z,42.60
2022-10-09T09:04:45.070Z,43.30
2022-10-09T09:07:31.861Z,43.18
2022-10-09T09:10:18.785Z,44.96
2022-10-09T09:13:08.285Z,41.67
2022-10-09T09:15:53.193Z,41.65
2022-10-09T09:18:43.102Z,42.96
2022-10-09T09:21:37.584Z,42.52
2022-10-09T09:24:16.309Z,42.02
2022-10-09T09:26:45.583Z,43.98
2022-10-09T09:29:15.931Z,44.58
2022-10-09T09:31:43.681Z,42.25
2022-10-09T09:34:10.262Z,41.95
2022-10-09T09:36:50.174Z,41.56
2022-10-09T09:42:09.874Z,39.07
2022-10-09T09:44:40.412Z,39.51
2022-10-09T09:47:15.490Z,40.77
2022-10-09T09:49:54.843Z,40.71
2022-10-09T09:52:22.021Z,39.16
2022-10-09T09:54:49.454Z,37.73
2022-10-09T09:57:29.459Z,38.57
2022-10-09T10:00:17.726Z,38.74
2022-10-09T10:02:44.704Z,38.06
2022-10-09T10:05:35.820Z,38.23
2022-10-09T10:08:23.452Z,38.32
2022-10-09T10:10:52.750Z,36.63
2022-10-09T10:13:38.304Z,36.48
2022-10-09T10:16:07.651Z,36.26
2022-10-09T10:18:42.971Z,36.26
2022-10-09T10:21:18.983Z,35.33
2022-10-09T10:24:03.581Z,36.36
2022-10-09T10:26:35.352Z,37.21
2022-10-09T10:29:09.341Z,36.44
2022-10-09T10:31:59.700Z,35.37
2022-10-09T10:34:29.733Z,35.36
2022-10-09T10:37:15.821Z,35.79
2022-10-09T10:39:59.368Z,35.80
2022-10-09T10:42:45.257Z,36.37
2022-10-09T10:45:17.109Z,34.83
2022-10-09T10:47:50.269Z,35.72
2022-10-09T10:50:19.521Z,34.10
2022-10-09T10:53:01.940Z,34.15
2022-10-09T10:55:43.736Z,33.40
2022-10-09T10:58:38.231Z,33.32
2022-10-09T11:01:10.897Z,34.26
2022-10-09T11:03:56.769Z,35.17
2022-10-09T11:06:30.157Z,33.35
2022-10-09T11:09:11.827Z,34.45
2022-10-09T11:12:01.293Z,34.37
2022-10-09T11:15:17.119Z,32.40
2022-10-09T11:18:14.635Z,33.37
2022-10-09T11:21:06.245Z,32.70
2022-10-09T11:23:41.621Z,31.34
2022-10-09T11:26:33.884Z,30.12
2022-10-09T11:29:18.534Z,28.80
2022-10-09T11:31:48.697Z,26.51
2022-10-09T11:34:22.449Z,25.26
2022-10-09T11:36:49.248Z,23.94
2022-10-09T11:39:20.410Z,22.48
2022-10-09T11:41:49.059Z,20.79
2022-10-09T11:44:18.600Z,20.55
2022-10-09T11:46:50.111Z,20.17
2022-10-09T11:49:23.628Z,20.58
2022-10-09T11:51:50.459Z,19.04
2022-10-09T11:54:20.619Z,18.92
2022-10-09T11:56:59.183Z,18.34
2022-10-09T11:59:31.755Z,18.46
2022-10-09T12:02:01.509Z,18.56
2022-10-09T12:04:50.129Z,18.46
2022-10-09T12:07:27.253Z,19.23
2022-10-09T12:10:00.506Z,17.99
2022-10-09T12:12:27.835Z,17.79
2022-10-09T12:14:55.233Z,18.11
2022-10-09T12:17:21.758Z,18.75
2022-10-09T12:19:58.582Z,18.62
2022-10-09T12:22:52.441Z,17.90
2022-10-09T12:25:32.612Z,17.14
2022-10-09T12:28:00.843Z,16.82
2022-10-09T12:30:45.053Z,17.31
2022-10-09T12:33:49.571Z,18.76
2022-10-09T12:36:27.670Z,18.48
2022-10-09T12:38:54.464Z,19.13
2022-10-09T12:41:31.467Z,19.01
2022-10-09T12:43:59.202Z,19.94
2022-10-09T12:46:29.499Z,20.91
2022-10-09T12:48:57.918Z,21.64
2022-10-09T12:51:26.874Z,21.03
2022-10-09T12:53:54.596Z,20.48
2022-10-09T12:56:30.417Z,20.41
2022-10-09T12:58:58.697Z,22.07
2022-10-09T13:01:25.797Z,24.03
2022-10-09T13:04:04.365Z,25.47
2022-10-09T13:06:38.425Z,26.76
2022-10-09T13:09:08.700Z,27.72
2022-10-09T13:11:43.469Z,28.96
2022-10-09T13:14:47.348Z,30.05
2022-10-09T13:17:25.186Z,31.04
2022-10-09T13:19:54.100Z,31.51
2022-10-09T13:22:26.597Z,31.99
2022-10-09T13:24:55.435Z,32.81
2022-10-09T13:27:27.142Z,33.51
2022-10-09T13:29:54.316Z,33.78
2022-10-09T13:32:21.071Z,34.23
2022-10-09T13:34:47.847Z,35.60
2022-10-09T13:37:17.399Z,34.72
2022-10-09T13:39:44.089Z,35.17
2022-10-09T13:42:15.311Z,35.59
2022-10-09T13:44:42.404Z,35.56
2022-10-09T13:47:09.214Z,35.99
2022-10-09T13:49:35.917Z,36.60
2022-10-09T13:52:02.649Z,35.81
2022-10-09T13:54:29.261Z,36.34
2022-10-09T13:56:56.024Z,36.78
2022-10-09T13:59:24.526Z,36.98
2022-10-09T14:01:51.734Z,37.43
2022-10-09T14:04:19.080Z,37.08
2022-10-09T14:06:45.718Z,37.57
2022-10-09T14:09:12.379Z,37.86
2022-10-09T14:11:39.268Z,37.30
2022-10-09T14:14:06.151Z,37.60
2022-10-09T14:16:32.934Z,37.49
2022-10-09T14:19:02.360Z,38.45
2022-10-09T14:21:30.151Z,38.38
2022-10-09T14:23:59.974Z,38.05
2022-10-09T14:26:27.936Z,38.38
2022-10-09T14:28:55.348Z,39.07
2022-10-09T14:31:22.037Z,39.20
2022-10-09T14:33:49.481Z,39.38
2022-10-09T14:36:19.167Z,39.49
2022-10-09T14:38:46.859Z,39.65
2022-10-09T14:41:14.185Z,40.91
2022-10-09T14:43:40.883Z,40.65
2022-10-09T14:46:15.636Z,41.37
2022-10-09T14:48:43.378Z,41.11
2022-10-09T14:51:13.241Z,41.29
2022-10-09T14:53:39.899Z,42.21
2022-10-09T14:56:10.413Z,43.04
2022-10-09T14:58:37.543Z,42.74
2022-10-09T15:01:04.579Z,42.74
2022-10-09T15:03:32.054Z,43.27
2022-10-09T15:06:00.570Z,43.58
2022-10-09T15:08:30.235Z,43.60
2022-10-09T15:10:57.033Z,44.03
2022-10-09T15:13:23.656Z,44.55
2022-10-09T15:15:50.474Z,43.58
2022-10-09T15:18:17.697Z,43.58
2022-10-09T15:20:45.579Z,43.32
2022-10-09T15:23:12.765Z,44.00
2022-10-09T15:25:39.591Z,45.46
2022-10-09T15:28:06.875Z,45.73
2022-10-09T15:30:33.529Z,46.78
2022-10-09T15:33:03.465Z,46.90
2022-10-09T15:35:32.135Z,46.70
2022-10-09T15:37:58.906Z,47.77
2022-10-09T15:40:25.590Z,47.83
2022-10-09T15:42:52.408Z,48.50
2022-10-09T15:45:19.933Z,48.93
2022-10-09T15:47:51.263Z,49.12
2022-10-09T15:50:18.471Z,49.84
2022-10-09T15:52:45.098Z,49.72
2022-10-09T15:55:11.769Z,50.84
2022-10-09T15:57:38.481Z,50.51
2022-10-09T16:00:05.956Z,51.33
2022-10-09T16:02:32.669Z,51.09
2022-10-09T16:04:59.349Z,51.60
2022-10-09T16:07:26.108Z,51.81
2022-10-09T16:09:53.111Z,52.95
2022-10-09T16:12:19.836Z,54.06
2022-10-09T16:14:46.400Z,53.57
2022-10-09T16:17:13.066Z,54.22
2022-10-09T16:19:39.810Z,54.29
2022-10-09T16:22:06.642Z,54.35
2022-10-09T16:24:33.413Z,54.61
2022-10-09T16:27:00.037Z,54.45
2022-10-09T16:29:26.777Z,54.93
2022-10-09T16:31:56.777Z,55.43
2022-10-09T16:34:23.713Z,55.68
2022-10-09T16:36:50.383Z,55.85
2022-10-09T16:39:17.518Z,56.21
2022-10-09T16:41:44.205Z,56.61
2022-10-09T16:44:17.005Z,56.10
2022-10-09T16:46:43.827Z,55.89
2022-10-09T16:49:20.055Z,56.59
2022-10-09T16:51:49.969Z,57.23
2022-10-09T16:54:16.565Z,57.54
2022-10-09T16:56:43.244Z,57.59
2022-10-09T16:59:13.092Z,57.88
2022-10-09T17:01:45.115Z,57.31
2022-10-09T17:04:13.110Z,57.93
2022-10-09T17:06:41.663Z,57.54
2022-10-09T17:09:13.696Z,57.71
2022-10-09T17:11:41.138Z,57.76
2022-10-09T17:14:07.802Z,58.77
2022-10-09T17:16:37.594Z,58.73
2022-10-09T17:19:04.835Z,58.37
2022-10-09T17:21:34.595Z,58.54
2022-10-09T17:24:04.240Z,58.66
2022-10-09T17:26:31.121Z,58.83
2022-10-09T17:28:59.307Z,59.25
2022-10-09T17:31:27.152Z,59.90
2022-10-09T17:33:57.134Z,59.38
2022-10-09T17:36:26.379Z,59.92
2022-10-09T17:38:53.610Z,59.87
2022-10-09T17:41:23.678Z,60.18
2022-10-09T17:43:54.838Z,60.07
2022-10-09T17:46:22.365Z,60.24
2022-10-09T17:48:56.686Z,61.46
2022-10-09T17:51:32.136Z,60.73
2022-10-09T17:54:01.434Z,60.21
2022-10-09T17:56:30.292Z,60.72
2022-10-09T17:58:59.672Z,60.63
2022-10-09T18:01:27.153Z,61.34
2022-10-09T18:03:54.075Z,61.57
2022-10-09T18:06:23.914Z,61.67
2022-10-09T18:08:55.570Z,61.42
2022-10-09T18:11:24.315Z,61.23
2022-10-09T18:13:51.178Z,61.90
2022-10-09T18:16:22.662Z,61.84
2022-10-09T18:18:49.599Z,61.99
2022-10-09T18:21:17.520Z,62.30
2022-10-09T18:23:46.442Z,62.33
2022-10-09T18:26:17.050Z,62.15
2022-10-09T18:28:47.441Z,62.57
2022-10-09T18:31:18.502Z,62.53
2022-10-09T18:33:45.466Z,62.74
2022-10-09T18:36:19.719Z,62.23
2022-10-09T18:38:51.517Z,62.48
2022-10-09T18:41:19.621Z,63.07
2022-10-09T18:43:47.015Z,63.64
2022-10-09T18:46:16.718Z,63.35
2022-10-09T18:48:44.550Z,62.73
2022-10-09T18:51:15.735Z,63.24
2022-10-09T18:53:45.564Z,63.19
2022-10-09T18:56:12.941Z,63.35
2022-10-09T18:58:42.040Z,63.39
2022-10-09T19:01:08.978Z,62.75
2022-10-09T19:03:36.755Z,62.22
2022-10-09T19:06:04.774Z,62.88
2022-10-09T19:08:31.901Z,62.25
2022-10-09T19:10:58.530Z,62.31
2022-10-09T19:13:25.355Z,62.82
2022-10-09T19:16:00.990Z,63.19
2022-10-09T19:18:27.748Z,62.93
2022-10-09T19:20:54.958Z,62.67
2022-10-09T19:23:21.836Z,62.50
2022-10-09T19:25:50.606Z,62.39
2022-10-09T19:28:17.722Z,62.20
2022-10-09T19:30:45.827Z,62.41
2022-10-09T19:33:12.765Z,61.98
2022-10-09T19:35:50.842Z,61.79
2022-10-09T19:38:17.706Z,62.10
2022-10-09T19:40:45.732Z,61.53
2022-10-09T19:43:13.866Z,61.45
2022-10-09T19:45:40.803Z,61.75
2022-10-09T19:48:07.930Z,61.50
2022-10-09T19:50:35.444Z,62.25
2022-10-09T19:53:04.242Z,61.76
2022-10-09T19:55:33.496Z,61.53
2022-10-09T19:58:00.484Z,61.35
2022-10-09T20:00:28.243Z,62.03
2022-10-09T20:02:54.882Z,61.43
2022-10-09T20:05:23.186Z,61.86
2022-10-09T20:07:50.438Z,61.42
2022-10-09T20:10:17.279Z,61.46
2022-10-09T20:12:43.942Z,61.45
2022-10-09T20:15:10.847Z,61.47
2022-10-09T20:17:37.490Z,61.90
2022-10-09T20:20:05.606Z,61.70
2022-10-09T20:22:32.343Z,61.74
2022-10-09T20:24:59.044Z,61.79
2022-10-09T20:27:25.660Z,61.37
2022-10-09T20:29:53.231Z,62.13
2022-10-09T20:32:20.035Z,61.85
2022-10-09T20:34:46.739Z,62.18
2022-10-09T20:37:13.445Z,62.03
2022-10-09T20:39:40.016Z,61.46
2022-10-09T20:42:06.849Z,61.72
2022-10-09T20:44:33.509Z,61.18
2022-10-09T20:47:00.369Z,61.15
2022-10-09T20:49:27.053Z,61.58
2022-10-09T20:51:53.810Z,61.78
2022-10-09T20:54:21.879Z,61.98
2022-10-09T20:56:49.615Z,62.23
2022-10-09T20:59:17.278Z,62.06
2022-10-09T21:01:44.551Z,62.04
2022-10-09T21:04:12.315Z,62.54
2022-10-09T21:06:39.371Z,62.83
2022-10-09T21:09:06.612Z,62.57
2022-10-09T21:11:34.798Z,62.60
2022-10-09T21:14:02.596Z,62.88
2022-10-09T21:16:29.593Z,62.83
2022-10-09T21:19:02.112Z,62.70
2022-10-09T21:21:29.538Z,62.98
2022-10-09T21:23:58.743Z,63.00
2022-10-09T21:26:27.512Z,63.55
2022-10-09T21:28:59.241Z,62.56
2022-10-09T21:31:28.643Z,62.93
2022-10-09T21:33:56.634Z,62.67
2022-10-09T21:37:16.044Z,63.01
2022-10-09T21:39:34.517Z,62.86
2022-10-09T21:42:01.117Z,63.25
2022-10-09T21:44:27.808Z,63.31
2022-10-09T21:46:54.486Z,63.89
2022-10-09T21:49:27.501Z,64.27
2022-10-09T21:51:54.488Z,64.37
2022-10-09T21:54:21.488Z,64.24
2022-10-09T21:56:48.737Z,64.64
2022-10-09T21:59:15.484Z,64.84
2022-10-09T22:01:42.114Z,64.56
2022-10-09T22:04:08.839Z,64.66
2022-10-09T22:06:35.823Z,64.42
2022-10-09T22:09:02.944Z,64.42
2022-10-09T22:11:29.525Z,64.24
2022-10-09T22:13:56.546Z,63.99
2022-10-09T22:16:23.913Z,63.71
2022-10-09T22:18:50.630Z,63.92
2022-10-09T22:21:17.940Z,64.06
2022-10-09T22:23:44.940Z,64.16
2022-10-09T22:26:16.722Z,64.10
2022-10-09T22:28:44.406Z,64.14
2022-10-09T22:31:15.421Z,63.70
2022-10-09T22:33:42.186Z,63.74
2022-10-09T22:36:17.446Z,63.43
2022-10-09T22:38:44.821Z,63.40
2022-10-09T22:41:17.859Z,63.25
2022-10-09T22:43:46.114Z,63.59
2022-10-09T22:46:35.381Z,63.67
2022-10-09T22:49:02.215Z,63.45
2022-10-09T22:51:29.918Z,63.60
2022-10-09T22:53:57.793Z,63.33
2022-10-09T22:56:30.702Z,63.38
2022-10-09T22:58:58.189Z,63.40
2022-10-09T23:01:37.746Z,63.62
2022-10-09T23:04:07.127Z,63.96
2022-10-09T23:06:34.127Z,63.66
2022-10-09T23:09:01.128Z,63.91
2022-10-09T23:11:27.937Z,64.16
2022-10-09T23:13:56.588Z,64.28
2022-10-09T23:16:24.281Z,64.42
2022-10-09T23:18:51.577Z,64.49
2022-10-09T23:21:20.408Z,64.82
2022-10-09T23:23:48.673Z,65.23
2022-10-09T23:26:18.956Z,65.45
2022-10-09T23:28:53.820Z,65.25
2022-10-09T23:31:20.575Z,65.64
2022-10-09T23:33:47.838Z,65.75
2022-10-09T23:36:18.312Z,65.88
2022-10-09T23:38:45.777Z,66.97
2022-10-09T23:41:16.043Z,67.07
2022-10-09T23:43:44.067Z,67.10
2022-10-09T23:46:16.552Z,67.30
2022-10-09T23:48:44.512Z,67.79
2022-10-09T23:51:11.500Z,68.36
2022-10-09T23:53:38.261Z,69.05
2022-10-09T23:56:23.260Z,69.70
2022-10-09T23:58:50.228Z,69.92
